Time;durP1;ratioP1;P1;durP2;ratioP2;P2;SDS_P1;SDS_P2;PMS_P1;PMS_P2;Temp;Humidity;BMP_temperature;BMP_pressure;BME280_temperature;BME280_humidity;BME280_pressure;Samples;Min_cycle;Max_cycle;Signal;HPM_P1;HPM_P2
2024/01/22 00:01:51;;;;;;;15.20;5.27;;;;;;;;;;5095965;28;20232;-56
2024/01/22 00:04:18;;;;;;;8.73;5.30;;;;;;;;;;5096369;28;20243;-56
2024/01/22 00:06:44;;;;;;;10.57;5.17;;;;;;;;;;5096596;28;20206;-56
2024/01/22 00:09:10;;;;;;;9.03;5.27;;;;;;;;;;5097109;28;20263;-56
2024/01/22 00:11:36;;;;;;;14.27;6.23;;;;;;;;;;5097460;28;20174;-54
2024/01/22 00:14:02;;;;;;;8.07;5.00;;;;;;;;;;5115247;28;20163;-53
2024/01/22 00:16:28;;;;;;;13.30;5.57;;;;;;;;;;5098799;28;20210;-56
2024/01/22 00:18:54;;;;;;;11.00;5.63;;;;;;;;;;5096012;28;20361;-55
2024/01/22 00:21:20;;;;;;;12.80;6.00;;;;;;;;;;5095892;28;20511;-54
2024/01/22 00:23:46;;;;;;;8.93;5.37;;;;;;;;;;5094062;28;20468;-56
2024/01/22 00:26:14;;;;;;;15.03;6.27;;;;;;;;;;5096197;28;20203;-53
2024/01/22 00:28:41;;;;;;;11.47;5.90;;;;;;;;;;5093872;28;20168;-51
2024/01/22 00:31:07;;;;;;;9.93;5.20;;;;;;;;;;5111892;28;20290;-53
2024/01/22 00:33:33;;;;;;;13.33;6.57;;;;;;;;;;5095207;28;20254;-55
2024/01/22 00:35:59;;;;;;;11.77;6.47;;;;;;;;;;5095227;28;20183;-55
2024/01/22 00:38:24;;;;;;;11.67;5.73;;;;;;;;;;5093797;28;20208;-55
2024/01/22 00:40:50;;;;;;;10.40;6.07;;;;;;;;;;5093644;28;20208;-56
2024/01/22 00:43:16;;;;;;;13.93;6.30;;;;;;;;;;5093068;28;20175;-56
2024/01/22 00:45:42;;;;;;;10.80;6.20;;;;;;;;;;5093516;28;20294;-56
2024/01/22 00:48:08;;;;;;;10.53;5.77;;;;;;;;;;5093494;28;20261;-55
2024/01/22 00:50:34;;;;;;;12.23;5.63;;;;;;;;;;5093563;28;20168;-55
2024/01/22 00:53:00;;;;;;;9.27;5.87;;;;;;;;;;5112047;28;20266;-53
2024/01/22 00:55:26;;;;;;;9.83;5.60;;;;;;;;;;5094864;28;20261;-55
2024/01/22 00:57:52;;;;;;;10.63;5.57;;;;;;;;;;5114120;28;20195;-57
2024/01/22 01:00:18;;;;;;;9.17;5.90;;;;;;;;;;5096154;28;20547;-56
2024/01/22 01:02:44;;;;;;;9.03;5.43;;;;;;;;;;5096588;28;20186;-53
2024/01/22 01:05:10;;;;;;;10.33;5.83;;;;;;;;;;5094651;28;20231;-58
2024/01/22 01:07:36;;;;;;;8.77;5.03;;;;;;;;;;5113864;28;20187;-57
2024/01/22 01:10:03;;;;;;;11.43;5.90;;;;;;;;;;5095397;28;20172;-54
2024/01/22 01:12:28;;;;;;;8.97;5.90;;;;;;;;;;5094929;28;20174;-55
2024/01/22 01:14:54;;;;;;;10.63;5.97;;;;;;;;;;5093758;28;20398;-56
2024/01/22 01:17:20;;;;;;;14.47;6.57;;;;;;;;;;5113041;28;20187;-54
2024/01/22 01:19:46;;;;;;;10.33;6.47;;;;;;;;;;5095065;28;20284;-56
2024/01/22 01:22:12;;;;;;;8.27;5.07;;;;;;;;;;5094076;28;20179;-55
2024/01/22 01:24:38;;;;;;;7.77;5.30;;;;;;;;;;5093091;28;20186;-56
2024/01/22 01:27:05;;;;;;;9.13;5.73;;;;;;;;;;5092869;28;20593;-56
2024/01/22 01:29:31;;;;;;;9.67;5.03;;;;;;;;;;5093361;28;20175;-57
2024/01/22 01:31:56;;;;;;;10.33;4.87;;;;;;;;;;5093381;28;20198;-55
2024/01/22 01:34:23;;;;;;;10.47;5.53;;;;;;;;;;5093874;28;20168;-52
2024/01/22 01:36:48;;;;;;;7.00;4.87;;;;;;;;;;5094866;28;20201;-57
2024/01/22 01:39:14;;;;;;;7.53;4.90;;;;;;;;;;5113594;28;20532;-56
2024/01/22 01:41:40;;;;;;;6.20;4.30;;;;;;;;;;5095549;28;20265;-56
2024/01/22 01:44:06;;;;;;;8.03;4.93;;;;;;;;;;5095103;28;20171;-56
2024/01/22 01:46:32;;;;;;;6.77;4.43;;;;;;;;;;5094776;28;20264;-56
2024/01/22 01:48:58;;;;;;;6.93;5.10;;;;;;;;;;5094819;28;20167;-54
2024/01/22 01:51:25;;;;;;;8.60;4.50;;;;;;;;;;5094159;28;20271;-55
2024/01/22 01:53:51;;;;;;;7.37;4.37;;;;;;;;;;5094912;28;20348;-55
2024/01/22 01:56:18;;;;;;;9.33;4.60;;;;;;;;;;5094516;28;20551;-55
2024/01/22 01:58:44;;;;;;;9.80;5.30;;;;;;;;;;5093790;28;20266;-56
2024/01/22 02:01:10;;;;;;;5.70;4.13;;;;;;;;;;5093379;28;20277;-57
2024/01/22 02:03:36;;;;;;;6.40;3.90;;;;;;;;;;5091733;28;20183;-55
2024/01/22 02:06:02;;;;;;;7.70;4.00;;;;;;;;;;5093852;28;20207;-56
2024/01/22 02:08:28;;;;;;;8.80;4.30;;;;;;;;;;5109382;28;20175;-56
2024/01/22 02:10:53;;;;;;;7.83;4.50;;;;;;;;;;5093434;28;20199;-54
2024/01/22 02:13:19;;;;;;;9.03;4.77;;;;;;;;;;5093644;28;20290;-55
2024/01/22 02:15:45;;;;;;;8.77;4.67;;;;;;;;;;5111494;28;20252;-54
2024/01/22 02:18:11;;;;;;;8.53;4.57;;;;;;;;;;5112189;28;20172;-55
2024/01/22 02:20:37;;;;;;;7.53;4.90;;;;;;;;;;5098122;28;20186;-53
2024/01/22 02:23:07;;;;;;;7.00;4.17;;;;;;;;;;5098257;28;20183;-56
2024/01/22 02:25:33;;;;;;;7.17;4.47;;;;;;;;;;5098792;28;20194;-55
2024/01/22 02:27:59;;;;;;;7.20;4.30;;;;;;;;;;5098244;28;20179;-53
2024/01/22 02:30:25;;;;;;;8.40;4.03;;;;;;;;;;5116146;28;20591;-55
2024/01/22 02:32:51;;;;;;;11.30;4.10;;;;;;;;;;5116587;28;20167;-56
2024/01/22 02:35:18;;;;;;;6.30;4.03;;;;;;;;;;5098326;28;20232;-55
2024/01/22 02:37:44;;;;;;;6.93;4.07;;;;;;;;;;5098325;28;20182;-56
2024/01/22 02:40:10;;;;;;;9.80;4.07;;;;;;;;;;5098270;28;20164;-54
2024/01/22 02:42:36;;;;;;;5.97;4.00;;;;;;;;;;5114982;28;20163;-55
2024/01/22 02:45:03;;;;;;;7.27;4.17;;;;;;;;;;5096581;28;20182;-56
2024/01/22 02:47:29;;;;;;;5.33;3.80;;;;;;;;;;5097204;28;20368;-53
2024/01/22 02:49:54;;;;;;;5.37;3.70;;;;;;;;;;5114048;28;20178;-56
2024/01/22 02:52:21;;;;;;;6.67;3.90;;;;;;;;;;5096098;28;20179;-56
2024/01/22 02:54:47;;;;;;;6.43;4.20;;;;;;;;;;5115543;28;20202;-53
2024/01/22 02:57:14;;;;;;;8.40;3.27;;;;;;;;;;5116073;28;20199;-52
2024/01/22 02:59:43;;;;;;;7.50;3.40;;;;;;;;;;5098434;28;20200;-55
2024/01/22 03:02:10;;;;;;;7.43;4.10;;;;;;;;;;5097647;28;20175;-55
2024/01/22 03:04:36;;;;;;;6.17;3.20;;;;;;;;;;5097792;28;20190;-56
2024/01/22 03:07:02;;;;;;;7.37;3.70;;;;;;;;;;5098083;28;20537;-54
2024/01/22 03:09:27;;;;;;;6.83;3.23;;;;;;;;;;5116424;28;20167;-56
2024/01/22 03:11:53;;;;;;;7.20;3.50;;;;;;;;;;5114698;28;20680;-53
2024/01/22 03:14:19;;;;;;;6.87;3.40;;;;;;;;;;5093613;28;20546;-54
2024/01/22 03:16:46;;;;;;;6.13;3.70;;;;;;;;;;5092326;28;20172;-56
2024/01/22 03:19:12;;;;;;;6.07;3.60;;;;;;;;;;5092853;28;20223;-55
2024/01/22 03:21:37;;;;;;;8.37;3.50;;;;;;;;;;5092613;28;20184;-54
2024/01/22 03:24:03;;;;;;;4.53;2.57;;;;;;;;;;5092348;28;20496;-54
2024/01/22 03:26:29;;;;;;;4.07;3.10;;;;;;;;;;5093383;28;20196;-58
2024/01/22 03:28:55;;;;;;;6.33;3.30;;;;;;;;;;5093809;28;20527;-56
2024/01/22 03:31:53;;;;;;;5.40;3.30;;;;;;;;;;5094044;28;20164;-55
2024/01/22 03:34:19;;;;;;;4.73;3.23;;;;;;;;;;5094537;28;20168;-54
2024/01/22 03:36:45;;;;;;;8.63;3.17;;;;;;;;;;5093870;28;20186;-56
2024/01/22 03:39:11;;;;;;;4.50;3.00;;;;;;;;;;5094050;28;20168;-56
2024/01/22 03:41:37;;;;;;;6.50;3.77;;;;;;;;;;5093364;28;20168;-54
2024/01/22 03:44:05;;;;;;;4.27;2.80;;;;;;;;;;5091893;28;20388;-54
2024/01/22 03:46:31;;;;;;;6.83;3.20;;;;;;;;;;5090928;28;20207;-52
2024/01/22 03:48:57;;;;;;;6.53;3.20;;;;;;;;;;5090920;28;20168;-57
2024/01/22 03:51:23;;;;;;;4.93;3.00;;;;;;;;;;5091306;28;20286;-55
2024/01/22 03:53:49;;;;;;;5.40;3.20;;;;;;;;;;5092210;28;20251;-52
2024/01/22 03:56:15;;;;;;;4.30;2.50;;;;;;;;;;5092873;28;20258;-54
2024/01/22 03:58:41;;;;;;;6.03;2.90;;;;;;;;;;5093315;28;20207;-55
2024/01/22 04:01:07;;;;;;;6.47;3.60;;;;;;;;;;5093132;28;20192;-57
2024/01/22 04:03:33;;;;;;;6.57;3.23;;;;;;;;;;5092359;28;20168;-55
2024/01/22 04:05:59;;;;;;;5.57;3.13;;;;;;;;;;5091542;28;20203;-55
2024/01/22 04:08:25;;;;;;;3.87;2.63;;;;;;;;;;5090178;28;20266;-56
2024/01/22 04:10:50;;;;;;;7.73;3.00;;;;;;;;;;5089872;28;20179;-55
2024/01/22 04:13:16;;;;;;;8.90;3.80;;;;;;;;;;5090581;28;20204;-55
2024/01/22 04:15:42;;;;;;;7.93;2.90;;;;;;;;;;5089815;28;20231;-55
2024/01/22 04:18:08;;;;;;;4.37;2.67;;;;;;;;;;5087790;28;20172;-55
2024/01/22 04:20:34;;;;;;;5.97;3.10;;;;;;;;;;5088926;28;20179;-55
2024/01/22 04:23:00;;;;;;;6.33;3.10;;;;;;;;;;5088575;28;20264;-54
2024/01/22 04:25:26;;;;;;;4.63;3.33;;;;;;;;;;5089107;28;20175;-56
2024/01/22 04:27:54;;;;;;;3.43;2.10;;;;;;;;;;5090155;28;20164;-55
2024/01/22 04:30:20;;;;;;;8.23;3.07;;;;;;;;;;5087719;28;20231;-52
2024/01/22 04:32:46;;;;;;;7.70;3.10;;;;;;;;;;5088360;28;20497;-56
2024/01/22 04:35:12;;;;;;;6.50;3.07;;;;;;;;;;5087852;28;20172;-57
2024/01/22 04:37:38;;;;;;;5.63;2.70;;;;;;;;;;5089347;28;20182;-57
2024/01/22 04:40:11;;;;;;;5.60;2.67;;;;;;;;;;5088774;28;20457;-56
2024/01/22 04:42:44;;;;;;;3.60;2.80;;;;;;;;;;5095083;28;20168;-56
2024/01/22 04:45:10;;;;;;;8.03;3.10;;;;;;;;;;5089806;28;20172;-55
2024/01/22 04:47:37;;;;;;;7.37;3.20;;;;;;;;;;5088861;28;20203;-56
2024/01/22 04:50:04;;;;;;;5.27;2.97;;;;;;;;;;5089330;28;20168;-54
2024/01/22 04:52:30;;;;;;;5.47;2.87;;;;;;;;;;5089659;28;20278;-54
2024/01/22 04:54:56;;;;;;;6.63;2.93;;;;;;;;;;5090122;28;20171;-57
2024/01/22 04:57:22;;;;;;;5.07;2.70;;;;;;;;;;5090757;28;20167;-56
2024/01/22 04:59:48;;;;;;;5.60;2.80;;;;;;;;;;5089226;28;20176;-55
2024/01/22 05:02:13;;;;;;;5.20;2.70;;;;;;;;;;5090030;28;20532;-53
2024/01/22 05:04:39;;;;;;;6.03;2.70;;;;;;;;;;5090139;28;20176;-57
2024/01/22 05:07:05;;;;;;;5.07;2.77;;;;;;;;;;5089158;28;20211;-55
2024/01/22 05:09:32;;;;;;;5.60;3.33;;;;;;;;;;5090510;28;20168;-57
2024/01/22 05:11:58;;;;;;;3.73;2.60;;;;;;;;;;5090892;28;20550;-57
2024/01/22 05:14:24;;;;;;;6.17;3.00;;;;;;;;;;5096050;28;20239;-57
2024/01/22 05:16:50;;;;;;;6.23;3.37;;;;;;;;;;5111846;28;20493;-56
2024/01/22 05:19:16;;;;;;;5.87;2.80;;;;;;;;;;5094093;28;20265;-56
2024/01/22 05:21:41;;;;;;;4.13;3.30;;;;;;;;;;5093837;28;20278;-54
2024/01/22 05:24:08;;;;;;;4.03;2.53;;;;;;;;;;5092801;28;20175;-56
2024/01/22 05:26:34;;;;;;;3.57;3.00;;;;;;;;;;5093760;28;20211;-52
2024/01/22 05:29:00;;;;;;;3.10;2.77;;;;;;;;;;5110715;28;20419;-57
2024/01/22 05:31:25;;;;;;;3.03;2.60;;;;;;;;;;5092472;28;20502;-55
2024/01/22 05:33:52;;;;;;;3.37;2.33;;;;;;;;;;5092307;28;20167;-55
2024/01/22 05:36:17;;;;;;;5.07;2.73;;;;;;;;;;5110025;28;20673;-57
2024/01/22 05:38:43;;;;;;;5.50;2.70;;;;;;;;;;5092704;28;20430;-55
2024/01/22 05:41:09;;;;;;;5.43;2.60;;;;;;;;;;5093275;28;20185;-55
2024/01/22 05:43:35;;;;;;;3.93;2.33;;;;;;;;;;5093211;28;20234;-54
2024/01/22 05:46:02;;;;;;;5.97;2.00;;;;;;;;;;5093039;28;20279;-56
2024/01/22 05:48:28;;;;;;;6.87;3.03;;;;;;;;;;5093121;28;20171;-56
2024/01/22 05:50:54;;;;;;;7.00;2.50;;;;;;;;;;5109888;28;20466;-57
2024/01/22 05:53:20;;;;;;;5.10;2.33;;;;;;;;;;5091981;28;20178;-53
2024/01/22 05:55:46;;;;;;;3.13;2.20;;;;;;;;;;5093176;28;20214;-54
2024/01/22 05:58:12;;;;;;;8.10;3.07;;;;;;;;;;5093129;28;20573;-56
2024/01/22 06:00:39;;;;;;;3.90;3.03;;;;;;;;;;5111428;28;20214;-52
2024/01/22 06:03:07;;;;;;;4.47;2.00;;;;;;;;;;5092742;28;20163;-57
2024/01/22 06:05:33;;;;;;;1.93;1.80;;;;;;;;;;5091379;28;20183;-53
2024/01/22 06:07:59;;;;;;;5.87;2.53;;;;;;;;;;5090432;28;20493;-56
2024/01/22 06:10:27;;;;;;;4.50;1.87;;;;;;;;;;5091146;28;20175;-54
2024/01/22 06:12:53;;;;;;;2.67;2.33;;;;;;;;;;5091874;28;20175;-52
2024/01/22 06:15:19;;;;;;;3.37;1.73;;;;;;;;;;5087170;28;20238;-56
2024/01/22 06:17:45;;;;;;;3.33;2.03;;;;;;;;;;5086987;28;20373;-55
2024/01/22 06:20:11;;;;;;;3.23;2.00;;;;;;;;;;5088212;28;20179;-57
2024/01/22 06:22:37;;;;;;;3.00;2.40;;;;;;;;;;5088103;28;20254;-57
2024/01/22 06:25:04;;;;;;;5.50;2.47;;;;;;;;;;5088764;28;20506;-56
2024/01/22 06:27:30;;;;;;;5.07;1.97;;;;;;;;;;5088498;28;20211;-56
2024/01/22 06:29:59;;;;;;;6.07;2.30;;;;;;;;;;5089306;28;20238;-57
2024/01/22 06:32:25;;;;;;;4.87;2.93;;;;;;;;;;5087597;28;20450;-53
2024/01/22 06:34:51;;;;;;;5.10;2.00;;;;;;;;;;5086252;28;20172;-55
2024/01/22 06:37:17;;;;;;;3.50;1.80;;;;;;;;;;5085878;28;20179;-57
2024/01/22 06:39:43;;;;;;;4.77;1.70;;;;;;;;;;5087049;28;20172;-57
2024/01/22 06:42:09;;;;;;;1.77;1.57;;;;;;;;;;5087289;28;20237;-57
2024/01/22 06:44:35;;;;;;;3.37;2.10;;;;;;;;;;5082759;28;20441;-55
2024/01/22 06:47:01;;;;;;;1.67;1.57;;;;;;;;;;5082558;28;20203;-57
2024/01/22 06:49:27;;;;;;;2.73;1.63;;;;;;;;;;5083746;28;20164;-57
2024/01/22 06:51:53;;;;;;;1.50;1.17;;;;;;;;;;5082664;28;20183;-57
2024/01/22 06:54:19;;;;;;;1.27;1.17;;;;;;;;;;5081902;28;20201;-55
2024/01/22 06:56:46;;;;;;;2.97;1.40;;;;;;;;;;5081834;28;20365;-57
2024/01/22 06:59:12;;;;;;;1.40;1.00;;;;;;;;;;5081716;28;20172;-57
2024/01/22 07:01:38;;;;;;;2.53;1.43;;;;;;;;;;5081817;28;20461;-56
2024/01/22 07:04:04;;;;;;;2.13;1.40;;;;;;;;;;5081688;28;20331;-57
2024/01/22 07:06:30;;;;;;;1.93;1.23;;;;;;;;;;5084332;28;20332;-56
2024/01/22 07:08:56;;;;;;;0.97;0.83;;;;;;;;;;5083850;28;20182;-55
2024/01/22 07:11:22;;;;;;;1.47;1.30;;;;;;;;;;5084009;28;20248;-55
2024/01/22 07:13:48;;;;;;;2.33;0.97;;;;;;;;;;5086490;28;20413;-56
2024/01/22 07:16:14;;;;;;;1.07;0.90;;;;;;;;;;5086685;28;20223;-56
2024/01/22 07:18:40;;;;;;;1.10;0.90;;;;;;;;;;5088071;28;20176;-55
2024/01/22 07:21:06;;;;;;;0.90;0.90;;;;;;;;;;5087824;28;20191;-59
2024/01/22 07:23:33;;;;;;;1.10;1.00;;;;;;;;;;5087561;28;20229;-55
2024/01/22 07:25:59;;;;;;;1.07;0.73;;;;;;;;;;5087263;28;20203;-57
2024/01/22 07:28:25;;;;;;;1.40;1.00;;;;;;;;;;5087243;28;20259;-56
2024/01/22 07:30:51;;;;;;;0.70;0.70;;;;;;;;;;5087243;28;20389;-56
2024/01/22 07:33:17;;;;;;;2.40;1.20;;;;;;;;;;5085402;28;20281;-56
2024/01/22 07:35:42;;;;;;;3.63;1.10;;;;;;;;;;5084833;28;20589;-57
2024/01/22 07:38:08;;;;;;;2.70;2.50;;;;;;;;;;5087042;28;20462;-56
2024/01/22 07:40:34;;;;;;;1.30;1.13;;;;;;;;;;5087157;28;20701;-54
2024/01/22 07:43:00;;;;;;;0.93;0.83;;;;;;;;;;5088526;28;20179;-57
2024/01/22 07:45:26;;;;;;;1.00;0.90;;;;;;;;;;5086817;28;20164;-57
2024/01/22 07:47:52;;;;;;;1.13;0.83;;;;;;;;;;5086570;28;20175;-57
2024/01/22 07:50:20;;;;;;;1.03;0.90;;;;;;;;;;5084981;28;20346;-52
2024/01/22 07:52:46;;;;;;;1.97;1.00;;;;;;;;;;5084698;28;20430;-55
2024/01/22 07:55:13;;;;;;;1.77;1.30;;;;;;;;;;5087162;28;20512;-57
2024/01/22 07:57:39;;;;;;;2.10;1.17;;;;;;;;;;5086352;28;20183;-55
2024/01/22 08:00:11;;;;;;;0.83;0.80;;;;;;;;;;5086697;28;20168;-56
2024/01/22 08:02:37;;;;;;;1.13;0.90;;;;;;;;;;5084949;28;20361;-57
2024/01/22 08:05:03;;;;;;;2.00;1.50;;;;;;;;;;5085847;28;20569;-54
2024/01/22 08:07:29;;;;;;;1.10;1.00;;;;;;;;;;5086315;28;20616;-56
2024/01/22 08:09:55;;;;;;;2.67;0.87;;;;;;;;;;5086717;28;20369;-54
2024/01/22 08:12:22;;;;;;;0.70;0.70;;;;;;;;;;5087347;28;20168;-55
2024/01/22 08:14:47;;;;;;;1.27;1.07;;;;;;;;;;5094291;28;20215;-54
2024/01/22 08:17:13;;;;;;;2.20;1.00;;;;;;;;;;5107710;28;20231;-54
2024/01/22 08:19:39;;;;;;;1.57;1.00;;;;;;;;;;5090621;28;20183;-53
2024/01/22 08:22:05;;;;;;;0.83;0.83;;;;;;;;;;5090956;28;20584;-52
2024/01/22 08:24:31;;;;;;;2.07;1.97;;;;;;;;;;5092505;28;20220;-57
2024/01/22 08:26:57;;;;;;;1.53;1.10;;;;;;;;;;5090226;28;20467;-55
2024/01/22 08:29:23;;;;;;;2.10;1.00;;;;;;;;;;5090614;28;20178;-56
2024/01/22 08:31:49;;;;;;;1.90;1.00;;;;;;;;;;5089335;28;20277;-57
2024/01/22 08:34:15;;;;;;;1.47;1.37;;;;;;;;;;5104317;28;20223;-55
2024/01/22 08:36:42;;;;;;;2.33;1.30;;;;;;;;;;5104671;28;20186;-55
2024/01/22 08:39:09;;;;;;;2.33;1.70;;;;;;;;;;5105101;28;20565;-57
2024/01/22 08:41:35;;;;;;;1.47;1.10;;;;;;;;;;5088134;28;20178;-53
2024/01/22 08:44:02;;;;;;;3.70;1.53;;;;;;;;;;5105714;28;20550;-53
2024/01/22 08:46:29;;;;;;;3.97;1.87;;;;;;;;;;5087133;28;20207;-56
2024/01/22 08:48:55;;;;;;;1.53;1.43;;;;;;;;;;5086184;28;20348;-54
2024/01/22 08:51:20;;;;;;;3.00;1.67;;;;;;;;;;5106077;28;20179;-55
2024/01/22 08:53:46;;;;;;;3.50;1.90;;;;;;;;;;5087967;28;20178;-53
2024/01/22 08:56:13;;;;;;;3.20;1.87;;;;;;;;;;5087070;28;20323;-54
2024/01/22 08:58:40;;;;;;;4.37;1.90;;;;;;;;;;5089129;28;20622;-56
2024/01/22 09:01:06;;;;;;;2.03;1.83;;;;;;;;;;5088675;28;20678;-57
2024/01/22 09:03:36;;;;;;;4.90;1.77;;;;;;;;;;5088925;28;20172;-56
2024/01/22 09:06:05;;;;;;;4.93;1.73;;;;;;;;;;5106176;28;20483;-54
2024/01/22 09:08:33;;;;;;;2.20;1.97;;;;;;;;;;5087204;28;20194;-56
2024/01/22 09:10:59;;;;;;;3.00;1.80;;;;;;;;;;5086580;28;20172;-55
2024/01/22 09:13:24;;;;;;;3.63;1.80;;;;;;;;;;5087097;28;20163;-56
2024/01/22 09:15:50;;;;;;;3.00;1.67;;;;;;;;;;5085407;28;20783;-54
2024/01/22 09:18:16;;;;;;;2.37;2.07;;;;;;;;;;5085913;28;20183;-57
2024/01/22 09:20:42;;;;;;;3.27;2.03;;;;;;;;;;5084791;28;20168;-54
2024/01/22 09:23:09;;;;;;;3.43;2.03;;;;;;;;;;5086976;28;20339;-56
2024/01/22 09:25:36;;;;;;;2.77;1.53;;;;;;;;;;5087880;28;20416;-57
2024/01/22 09:28:02;;;;;;;6.40;2.10;;;;;;;;;;5088857;28;20174;-56
2024/01/22 09:30:28;;;;;;;5.33;2.40;;;;;;;;;;5090345;28;20565;-57
2024/01/22 09:32:57;;;;;;;2.97;1.77;;;;;;;;;;5088320;28;20308;-55
2024/01/22 09:35:23;;;;;;;1.80;1.57;;;;;;;;;;5087422;28;20270;-56
2024/01/22 09:37:49;;;;;;;4.57;2.00;;;;;;;;;;5086017;28;20289;-56
2024/01/22 09:40:16;;;;;;;13.60;2.47;;;;;;;;;;5103989;28;20262;-57
2024/01/22 09:42:42;;;;;;;3.87;2.00;;;;;;;;;;5102799;28;20224;-55
2024/01/22 09:45:08;;;;;;;3.87;2.00;;;;;;;;;;5085648;28;20183;-55
2024/01/22 09:47:37;;;;;;;3.23;2.13;;;;;;;;;;5103432;28;20201;-59
2024/01/22 09:50:03;;;;;;;2.83;1.80;;;;;;;;;;5086513;28;20377;-55
2024/01/22 09:52:29;;;;;;;4.90;1.70;;;;;;;;;;5086405;28;20321;-57
2024/01/22 09:54:56;;;;;;;4.70;1.73;;;;;;;;;;5084860;28;20458;-57
2024/01/22 09:57:25;;;;;;;1.60;1.50;;;;;;;;;;5083860;28;20172;-54
2024/01/22 09:59:52;;;;;;;3.77;1.60;;;;;;;;;;5085828;28;20175;-57
2024/01/22 10:02:18;;;;;;;4.20;1.77;;;;;;;;;;5084672;28;20298;-57
2024/01/22 10:04:47;;;;;;;3.90;1.40;;;;;;;;;;5084404;28;20167;-54
2024/01/22 10:07:14;;;;;;;1.97;1.77;;;;;;;;;;5085628;28;20310;-57
2024/01/22 10:09:40;;;;;;;2.20;1.93;;;;;;;;;;5103687;28;20640;-55
2024/01/22 10:12:07;;;;;;;3.27;1.97;;;;;;;;;;5086783;28;20164;-56
2024/01/22 10:14:37;;;;;;;3.23;2.20;;;;;;;;;;5087048;28;20223;-54
2024/01/22 10:17:19;;;;;;;4.47;2.57;;;;;;;;;;5105003;28;20341;-55
2024/01/22 10:19:45;;;;;;;2.33;2.13;;;;;;;;;;5105890;28;20440;-55
2024/01/22 10:22:14;;;;;;;2.30;2.10;;;;;;;;;;5088608;28;20183;-57
2024/01/22 10:24:40;;;;;;;3.53;2.60;;;;;;;;;;5093563;28;20691;-55
2024/01/22 10:27:14;;;;;;;2.10;2.00;;;;;;;;;;5092804;28;20203;-57
2024/01/22 10:29:40;;;;;;;5.60;2.87;;;;;;;;;;5093512;28;20258;-57
2024/01/22 10:32:06;;;;;;;3.60;2.90;;;;;;;;;;5092293;28;20179;-57
2024/01/22 10:34:42;;;;;;;3.30;2.70;;;;;;;;;;5109412;28;20170;-54
2024/01/22 10:37:09;;;;;;;3.83;3.60;;;;;;;;;;5091150;28;20179;-57
2024/01/22 10:39:36;;;;;;;3.57;2.60;;;;;;;;;;5092754;28;20453;-55
2024/01/22 10:42:17;;;;;;;9.13;2.30;;;;;;;;;;5097915;28;20171;-56
2024/01/22 10:44:48;;;;;;;8.77;2.37;;;;;;;;;;5098011;28;20272;-56
2024/01/22 10:47:14;;;;;;;14.57;2.83;;;;;;;;;;5098031;28;20758;-56
2024/01/22 10:49:42;;;;;;;9.13;2.57;;;;;;;;;;5116562;28;20649;-53
2024/01/22 10:52:08;;;;;;;8.50;2.30;;;;;;;;;;5094113;28;20566;-58
2024/01/22 10:54:35;;;;;;;14.20;2.87;;;;;;;;;;5091468;28;20194;-57
2024/01/22 10:57:05;;;;;;;5.80;1.93;;;;;;;;;;5108984;28;20364;-56
2024/01/22 10:59:35;;;;;;;10.07;2.57;;;;;;;;;;5090539;28;20175;-53
2024/01/22 11:02:03;;;;;;;8.57;1.87;;;;;;;;;;5089906;28;20469;-57
2024/01/22 11:04:33;;;;;;;10.03;3.33;;;;;;;;;;5107978;28;20258;-55
2024/01/22 11:07:02;;;;;;;7.57;3.10;;;;;;;;;;5090391;28;20211;-56
2024/01/22 11:09:31;;;;;;;8.37;2.80;;;;;;;;;;5093130;28;20168;-56
2024/01/22 11:11:58;;;;;;;5.47;2.10;;;;;;;;;;5109745;28;20198;-57
2024/01/22 11:14:24;;;;;;;15.13;3.13;;;;;;;;;;5091139;28;20427;-57
2024/01/22 11:16:50;;;;;;;9.30;2.13;;;;;;;;;;5091829;28;20171;-57
2024/01/22 11:19:22;;;;;;;13.13;2.67;;;;;;;;;;5091899;28;20219;-57
2024/01/22 11:21:49;;;;;;;9.67;3.13;;;;;;;;;;5089718;28;20211;-57
2024/01/22 11:24:17;;;;;;;15.33;3.40;;;;;;;;;;5089787;28;20171;-55
2024/01/22 11:27:03;;;;;;;16.63;3.40;;;;;;;;;;5086807;28;20481;-57
2024/01/22 11:29:29;;;;;;;14.30;3.50;;;;;;;;;;5103988;28;20527;-56
2024/01/22 11:31:56;;;;;;;18.03;3.67;;;;;;;;;;5104364;28;20453;-57
2024/01/22 11:34:40;;;;;;;15.03;3.10;;;;;;;;;;5085961;28;20168;-58
2024/01/22 11:37:07;;;;;;;10.20;2.70;;;;;;;;;;5089142;28;20255;-57
2024/01/22 11:39:34;;;;;;;13.40;3.00;;;;;;;;;;5089309;28;20204;-58
2024/01/22 11:42:16;;;;;;;14.30;4.13;;;;;;;;;;5091654;28;20543;-56
2024/01/22 11:44:42;;;;;;;15.43;3.63;;;;;;;;;;5106647;28;20505;-55
2024/01/22 11:47:10;;;;;;;19.50;3.30;;;;;;;;;;5089519;28;20273;-55
2024/01/22 11:49:36;;;;;;;15.50;3.07;;;;;;;;;;5089635;28;20441;-55
2024/01/22 11:52:14;;;;;;;15.47;3.60;;;;;;;;;;5088834;28;20186;-57
2024/01/22 11:54:57;;;;;;;17.10;4.13;;;;;;;;;;5088959;28;20167;-58
2024/01/22 11:57:23;;;;;;;20.67;4.50;;;;;;;;;;5108503;28;20163;-58
2024/01/22 12:00:00;;;;;;;15.37;3.37;;;;;;;;;;5090999;28;20482;-57
2024/01/22 12:02:26;;;;;;;16.63;4.27;;;;;;;;;;5090147;28;20384;-53
2024/01/22 12:05:02;;;;;;;11.10;3.70;;;;;;;;;;5107004;28;20367;-57
2024/01/22 12:07:35;;;;;;;15.23;3.83;;;;;;;;;;5088676;28;20211;-56
2024/01/22 12:10:04;;;;;;;15.13;3.27;;;;;;;;;;5092450;28;20179;-57
2024/01/22 12:12:30;;;;;;;17.57;3.73;;;;;;;;;;5112526;28;20159;-56
2024/01/22 12:14:59;;;;;;;16.23;3.97;;;;;;;;;;5090116;28;20247;-57
2024/01/22 12:17:25;;;;;;;20.03;4.37;;;;;;;;;;5092210;28;20183;-57
2024/01/22 12:19:55;;;;;;;13.53;4.33;;;;;;;;;;5092056;28;20172;-56
2024/01/22 12:22:22;;;;;;;22.47;3.80;;;;;;;;;;5091844;28;20180;-56
2024/01/22 12:25:07;;;;;;;16.77;3.87;;;;;;;;;;5090868;28;20237;-57
2024/01/22 12:27:33;;;;;;;23.33;4.73;;;;;;;;;;5090175;28;20493;-57
2024/01/22 12:30:00;;;;;;;17.93;3.70;;;;;;;;;;5090143;28;20168;-56
2024/01/22 12:32:26;;;;;;;18.17;4.43;;;;;;;;;;5089854;28;20271;-57
2024/01/22 12:34:58;;;;;;;28.23;4.63;;;;;;;;;;5089062;28;20255;-57
2024/01/22 12:37:27;;;;;;;19.87;4.27;;;;;;;;;;5087476;28;20187;-57
2024/01/22 12:40:09;;;;;;;18.97;4.13;;;;;;;;;;5089203;28;20506;-57
2024/01/22 12:42:35;;;;;;;22.47;4.17;;;;;;;;;;5091532;28;20614;-56
2024/01/22 12:45:01;;;;;;;19.60;4.27;;;;;;;;;;5090222;28;20640;-55
2024/01/22 12:47:28;;;;;;;18.00;4.67;;;;;;;;;;5090333;28;20303;-53
2024/01/22 12:49:54;;;;;;;28.97;4.70;;;;;;;;;;5090095;28;20198;-57
2024/01/22 12:52:22;;;;;;;19.80;4.63;;;;;;;;;;5092012;28;20176;-57
2024/01/22 12:54:48;;;;;;;27.93;6.43;;;;;;;;;;5091450;28;20186;-55
2024/01/22 12:57:14;;;;;;;19.87;4.63;;;;;;;;;;5092238;28;20176;-57
2024/01/22 12:59:40;;;;;;;22.73;5.07;;;;;;;;;;5090412;28;20566;-56
2024/01/22 13:02:06;;;;;;;23.97;5.37;;;;;;;;;;5090823;28;20241;-56
2024/01/22 13:04:32;;;;;;;25.87;4.87;;;;;;;;;;5090633;28;20172;-57
2024/01/22 13:06:58;;;;;;;18.87;4.33;;;;;;;;;;5089681;28;20240;-55
2024/01/22 13:09:24;;;;;;;22.40;5.20;;;;;;;;;;5091087;28;20263;-53
2024/01/22 13:11:51;;;;;;;20.73;4.63;;;;;;;;;;5090494;28;20271;-57
2024/01/22 13:14:17;;;;;;;24.90;5.37;;;;;;;;;;5095535;28;20219;-55
2024/01/22 13:16:43;;;;;;;23.97;4.70;;;;;;;;;;5093817;28;20176;-51
2024/01/22 13:19:09;;;;;;;18.77;5.27;;;;;;;;;;5113503;28;20328;-56
2024/01/22 13:21:35;;;;;;;26.10;4.80;;;;;;;;;;5095132;28;20456;-55
2024/01/22 13:24:01;;;;;;;19.97;5.13;;;;;;;;;;5093854;28;20186;-56
2024/01/22 13:26:28;;;;;;;29.33;4.53;;;;;;;;;;5094759;28;20207;-56
2024/01/22 13:28:54;;;;;;;26.43;5.00;;;;;;;;;;5093271;28;20228;-53
2024/01/22 13:31:20;;;;;;;18.60;4.27;;;;;;;;;;5092724;28;20206;-57
2024/01/22 13:33:46;;;;;;;17.33;4.67;;;;;;;;;;5093622;28;20271;-55
2024/01/22 13:36:11;;;;;;;26.80;5.83;;;;;;;;;;5111240;28;20179;-55
2024/01/22 13:38:41;;;;;;;21.20;4.50;;;;;;;;;;5110295;28;20168;-52
2024/01/22 13:41:07;;;;;;;20.27;5.13;;;;;;;;;;5112476;28;20181;-57
2024/01/22 13:43:33;;;;;;;30.43;5.80;;;;;;;;;;5094907;28;20181;-57
2024/01/22 13:46:00;;;;;;;28.07;4.80;;;;;;;;;;5095160;28;20403;-57
2024/01/22 13:48:26;;;;;;;34.80;5.27;;;;;;;;;;5112439;28;20250;-57
2024/01/22 13:50:52;;;;;;;19.23;4.17;;;;;;;;;;5094215;28;20263;-57
2024/01/22 13:53:19;;;;;;;19.47;5.03;;;;;;;;;;5092841;28;20171;-54
2024/01/22 13:55:44;;;;;;;16.70;4.57;;;;;;;;;;5110543;28;20163;-57
2024/01/22 13:58:11;;;;;;;23.57;4.57;;;;;;;;;;5092144;28;20185;-57
2024/01/22 14:00:37;;;;;;;18.83;4.43;;;;;;;;;;5092114;28;20187;-56
2024/01/22 14:03:06;;;;;;;17.30;4.00;;;;;;;;;;5091079;28;20207;-56
2024/01/22 14:05:32;;;;;;;15.60;4.07;;;;;;;;;;5090010;28;20171;-55
2024/01/22 14:07:58;;;;;;;15.33;3.80;;;;;;;;;;5090964;28;20218;-57
2024/01/22 14:10:24;;;;;;;18.77;4.57;;;;;;;;;;5090889;28;20163;-57
2024/01/22 14:12:50;;;;;;;25.47;6.17;;;;;;;;;;5090707;28;20213;-55
2024/01/22 14:15:16;;;;;;;18.97;5.40;;;;;;;;;;5093001;28;20254;-57
2024/01/22 14:17:42;;;;;;;18.30;3.90;;;;;;;;;;5095211;28;20258;-57
2024/01/22 14:20:08;;;;;;;15.67;4.23;;;;;;;;;;5093998;28;20171;-57
2024/01/22 14:22:36;;;;;;;13.70;3.43;;;;;;;;;;5095643;28;20175;-56
2024/01/22 14:25:02;;;;;;;13.63;3.97;;;;;;;;;;5113539;28;20179;-57
2024/01/22 14:27:28;;;;;;;20.30;5.10;;;;;;;;;;5096337;28;20203;-56
2024/01/22 14:29:54;;;;;;;14.73;4.73;;;;;;;;;;5114204;28;20163;-55
2024/01/22 14:32:20;;;;;;;21.03;4.37;;;;;;;;;;5097483;28;20167;-55
2024/01/22 14:34:46;;;;;;;17.27;4.40;;;;;;;;;;5093090;28;20201;-52
2024/01/22 14:37:12;;;;;;;16.43;3.50;;;;;;;;;;5110023;28;20183;-56